Time;durP1;ratioP1;P1;durP2;ratioP2;P2;SDS_P1;SDS_P2;PMS_P1;PMS_P2;Temp;Humidity;BMP_temperature;BMP_pressure;BME280_temperature;BME280_humidity;BME280_pressure;Samples;Min_cycle;Max_cycle;Signal;HPM_P1;HPM_P2
2024/02/02 00:01:19;;;;;;;;;46.25;38.00;;;;;-144.24;100.00;95347.88;5043916;28;46977;-72
2024/02/02 00:03:45;;;;;;;;;39.00;33.50;;;;;-144.24;100.00;95355.97;5021519;28;68752;-71
2024/02/02 00:06:10;;;;;;;;;45.75;37.25;;;;;-144.24;100.00;95317.44;5038200;28;62418;-73
2024/02/02 00:08:35;;;;;;;;;50.25;39.00;;;;;-144.24;100.00;95285.00;5019129;28;61395;-71
2024/02/02 00:11:01;;;;;;;;;47.50;39.00;;;;;-144.24;100.00;95319.47;5018852;28;69457;-71
2024/02/02 00:13:26;;;;;;;;;39.25;34.75;;;;;-144.24;100.00;95266.75;5050016;28;47806;-72
2024/02/02 00:15:52;;;;;;;;;35.25;35.00;;;;;-144.24;100.00;95171.44;5051600;28;45346;-71
2024/02/02 00:18:19;;;;;;;;;42.00;38.75;;;;;-144.24;100.00;95362.06;5032368;28;45387;-72
2024/02/02 00:20:44;;;;;;;;;37.75;33.50;;;;;-144.24;100.00;95370.19;5032371;28;46725;-72
2024/02/02 00:23:09;;;;;;;;;44.75;36.50;;;;;-144.24;100.00;95487.78;5047994;28;48924;-73
2024/02/02 00:25:34;;;;;;;;;36.00;34.25;;;;;-144.24;100.00;95747.38;5035881;28;49286;-71
2024/02/02 00:28:00;;;;;;;;;39.50;33.50;;;;;-144.24;100.00;95641.91;5036413;28;59858;-71
2024/02/02 00:30:25;;;;;;;;;38.00;33.25;;;;;-144.24;100.00;95615.56;5035828;28;48236;-73
2024/02/02 00:32:51;;;;;;;;;35.75;31.50;;;;;-144.24;100.00;95601.34;5042174;28;45437;-72
2024/02/02 00:35:16;;;;;;;;;34.50;30.50;;;;;-144.24;100.00;95725.06;5048017;28;45488;-72
2024/02/02 00:37:44;;;;;;;;;39.25;35.25;;;;;-144.24;100.00;95822.41;5053878;28;54822;-72
2024/02/02 00:40:09;;;;;;;;;32.25;28.00;;;;;-144.24;100.00;95858.91;5009745;28;47638;-71
2024/02/02 00:42:36;;;;;;;;;35.00;29.75;;;;;-144.24;100.00;95856.88;5033586;28;45364;-73
2024/02/02 00:45:01;;;;;;;;;40.50;32.75;;;;;-144.24;100.00;95887.31;5054481;22;45561;-71
2024/02/02 00:47:27;;;;;;;;;34.50;31.25;;;;;-144.24;100.00;95869.06;5064530;22;45521;-71
2024/02/02 00:49:52;;;;;;;;;32.00;28.50;;;;;-144.24;100.00;95834.56;5065868;28;47357;-72
2024/02/02 00:52:24;;;;;;;;;35.00;27.25;;;;;-144.24;100.00;96051.59;5057024;28;45457;-72
2024/02/02 00:54:49;;;;;;;;;31.25;29.25;;;;;-144.24;100.00;96189.50;5061706;22;45281;-71
2024/02/02 00:57:15;;;;;;;;;30.50;27.75;;;;;-144.24;100.00;96185.44;5057940;22;47213;-72
2024/02/02 00:59:40;;;;;;;;;34.00;32.50;;;;;-144.24;100.00;96400.44;5011364;28;47557;-72
2024/02/02 01:02:06;;;;;;;;;27.50;23.75;;;;;-144.24;100.00;96643.84;5043410;28;45363;-72
2024/02/02 01:04:31;;;;;;;;;13.50;8.25;;;;;-144.24;100.00;96526.22;5044066;28;45485;-71
2024/02/02 01:06:57;;;;;;;;;34.25;29.50;;;;;-144.24;100.00;96643.84;5042036;28;45463;-71
2024/02/02 01:09:22;;;;;;;;;32.00;26.50;;;;;-144.24;100.00;96771.66;5020923;28;47458;-72
2024/02/02 01:11:48;;;;;;;;;30.25;25.00;;;;;-144.24;100.00;96690.50;5055965;28;45411;-71
2024/02/02 01:14:17;;;;;;;;;34.00;24.50;;;;;-144.24;100.00;96873.09;5051986;28;45874;-72
2024/02/02 01:16:42;;;;;;;;;33.50;23.50;;;;;-144.24;100.00;96881.19;5072985;22;45590;-73
2024/02/02 01:21:37;;;;;;;;;25.50;23.50;;;;;-144.24;100.00;97234.19;5059578;22;45231;-71
2024/02/02 01:24:02;;;;;;;;;31.00;27.75;;;;;-144.24;100.00;97445.19;5045964;28;45579;-73
2024/02/02 01:26:28;;;;;;;;;30.00;27.25;;;;;-144.24;100.00;97631.84;5037689;28;45577;-71
2024/02/02 01:28:53;;;;;;;;;29.75;27.00;;;;;-144.24;100.00;98015.34;5048189;22;64629;-72
2024/02/02 01:31:19;;;;;;;;;33.25;26.50;;;;;-144.24;100.00;98415.09;5066359;22;45408;-71
2024/02/02 01:33:45;;;;;;;;;23.50;21.75;;;;;-144.24;100.00;98798.69;5060674;28;48580;-72
2024/02/02 01:36:10;;;;;;;;;32.25;27.00;;;;;-144.24;100.00;99184.31;5059311;28;45499;-71
2024/02/02 01:38:35;;;;;;;;;36.50;25.75;;;;;-144.24;100.00;99793.28;5057927;28;61051;-72
2024/02/02 01:41:01;;;;;;;;;31.25;27.00;;;;;-144.24;100.00;100093.75;5060569;28;45270;-73
2024/02/02 01:43:27;;;;;;;;;24.00;23.25;;;;;-144.24;100.00;100221.63;5058640;28;46408;-72
2024/02/02 01:45:52;;;;;;;;;28.50;22.00;;;;;-144.24;100.00;100595.22;5073732;22;46830;-73
2024/02/02 01:48:18;;;;;;;;;25.75;21.00;;;;;-144.24;100.00;100782.03;5041865;28;48235;-71
2024/02/02 01:50:43;;;;;;;;;25.00;24.25;;;;;-144.24;100.00;101060.22;5039546;22;45477;-71
2024/02/02 01:53:09;;;;;;;;;29.00;27.50;;;;;-144.24;100.00;101279.56;5060052;28;45423;-73
2024/02/02 01:55:34;;;;;;;;;27.50;21.00;;;;;-144.24;100.00;101188.16;5042657;28;45552;-72
2024/02/02 01:58:00;;;;;;;;;30.75;24.00;;;;;-144.24;100.00;101419.69;5059751;28;45475;-72
2024/02/02 02:00:25;;;;;;;;;28.00;24.00;;;;;-144.24;100.00;101697.91;5042697;28;45486;-72
2024/02/02 02:02:54;;;;;;;;;29.50;23.50;;;;;-144.24;100.00;101929.47;5058978;28;55545;-72
2024/02/02 02:05:19;;;;;;;;;30.50;26.50;;;;;-144.24;100.00;102065.53;5041798;28;45655;-71
2024/02/02 02:07:45;;;;;;;;;29.75;26.75;;;;;-144.24;100.00;102185.38;5059872;28;68947;-72
2024/02/02 02:10:13;;;;;;;;;24.25;24.25;;;;;-144.24;100.00;102427.13;5042200;28;45499;-72
2024/02/02 02:12:38;;;;;;;;;23.00;19.25;;;;;-144.24;100.00;102502.28;5058897;28;45417;-72
2024/02/02 02:15:04;;;;;;;;;21.25;21.25;;;;;-144.24;100.00;102567.28;5073612;22;46459;-72
2024/02/02 02:17:29;;;;;;;;;27.75;22.00;;;;;-144.24;100.00;102423.06;5086543;22;46397;-71
2024/02/02 02:19:57;;;;;;;;;28.25;23.25;;;;;-144.24;100.00;102187.41;5093074;22;45451;-73
2024/02/02 02:22:23;;;;;;;;;24.00;18.25;;;;;-144.24;100.00;101970.09;5069033;22;45559;-72
2024/02/02 02:24:48;;;;;;;;;27.00;22.25;;;;;-144.24;100.00;101915.25;5085319;22;45467;-71
2024/02/02 02:27:20;;;;;;;;;23.75;19.25;;;;;-144.24;100.00;101561.84;5039435;22;61839;-75
2024/02/02 02:29:45;;;;;;;;;20.00;19.25;;;;;-144.24;100.00;101385.16;5021514;28;45383;-72
2024/02/02 02:32:10;;;;;;;;;18.00;18.00;;;;;-144.24;100.00;101247.06;5021536;28;45252;-72
2024/02/02 02:34:36;;;;;;;;;27.75;23.25;;;;;-144.24;100.00;100903.88;5031910;28;46169;-72
2024/02/02 02:37:01;;;;;;;;;23.50;19.25;;;;;-144.24;100.00;100861.22;5030885;28;46597;-72
2024/02/02 02:39:27;;;;;;;;;23.75;20.50;;;;;-144.24;100.00;100552.59;5019347;28;45609;-72
2024/02/02 02:41:52;;;;;;;;;21.50;18.75;;;;;-144.24;100.00;100487.63;5079774;22;62685;-73
2024/02/02 02:44:17;;;;;;;;;35.50;26.00;;;;;-144.24;100.00;100223.69;5061272;28;52869;-71
2024/02/02 02:46:51;;;;;;;;;24.75;20.25;;;;;-144.24;100.00;99990.19;5076890;22;61635;-74
2024/02/02 02:49:16;;;;;;;;;22.50;20.00;;;;;-144.24;100.00;99815.59;5057570;28;45509;-71
2024/02/02 02:51:42;;;;;;;;;21.00;18.50;;;;;-144.24;100.00;99683.66;5040035;28;55245;-72
2024/02/02 02:54:07;;;;;;;;;21.75;16.75;;;;;-144.24;100.00;99673.50;5054040;28;54062;-73
2024/02/02 02:56:32;;;;;;;;;21.00;17.50;;;;;-144.24;100.00;99563.88;5056609;28;54910;-72
2024/02/02 02:58:58;;;;;;;;;26.75;22.50;;;;;-144.24;100.00;99513.13;5055828;28;45643;-71
2024/02/02 03:01:23;;;;;;;;;30.25;19.00;;;;;-144.24;100.00;99350.75;5039764;28;45423;-71
2024/02/02 03:03:50;;;;;;;;;25.50;20.50;;;;;-144.24;100.00;99334.50;5057634;28;45315;-71
2024/02/02 03:06:15;;;;;;;;;22.00;17.25;;;;;-144.24;100.00;99220.84;5191495;22;45951;-73
2024/02/02 03:08:40;;;;;;;;;21.50;21.50;;;;;-144.24;100.00;99101.09;5070408;28;45258;-72
2024/02/02 03:11:06;;;;;;;;;19.25;17.00;;;;;-144.24;100.00;99143.72;5058210;28;45509;-73
2024/02/02 03:13:31;;;;;;;;;19.50;17.00;;;;;-144.24;100.00;98835.22;5077371;28;56289;-73
2024/02/02 03:15:57;;;;;;;;;29.25;21.25;;;;;-144.24;100.00;98768.22;5067913;28;63664;-71
2024/02/02 03:18:22;;;;;;;;;16.00;13.50;;;;;-144.24;100.00;98658.63;5073943;28;45488;-72
2024/02/02 03:20:47;;;;;;;;;24.00;18.00;;;;;-144.24;100.00;98547.03;5078379;28;45935;-73
2024/02/02 03:23:13;;;;;;;;;24.00;20.25;;;;;-144.24;100.00;98599.78;5077475;28;60989;-73
2024/02/02 03:25:38;;;;;;;;;28.00;20.00;;;;;-144.24;100.00;98264.94;5078076;28;45460;-72
2024/02/02 03:28:04;;;;;;;;;17.75;16.50;;;;;-144.24;100.00;98329.88;5042423;28;56848;-71
2024/02/02 03:30:29;;;;;;;;;24.00;19.50;;;;;-144.24;100.00;98321.75;5060807;28;45217;-72
2024/02/02 03:32:54;;;;;;;;;19.50;17.50;;;;;-144.24;100.00;98189.84;5060123;28;45457;-70
2024/02/02 03:35:20;;;;;;;;;18.75;17.00;;;;;-144.24;100.00;98279.16;5078534;28;62222;-73
2024/02/02 03:37:48;;;;;;;;;13.00;13.00;;;;;-144.24;100.00;98147.25;5050436;28;45300;-72
2024/02/02 03:40:14;;;;;;;;;14.75;14.75;;;;;-144.24;100.00;98027.53;5073817;28;45441;-71
2024/02/02 03:42:39;;;;;;;;;17.25;15.75;;;;;-144.24;100.00;98084.34;5079257;28;45338;-74
2024/02/02 03:45:05;;;;;;;;;23.00;17.25;;;;;-144.24;100.00;98124.91;5060877;28;46355;-71
2024/02/02 03:47:31;;;;;;;;;17.50;16.25;;;;;-144.24;100.00;98133.03;5060960;28;45410;-72
2024/02/02 03:49:56;;;;;;;;;18.75;16.00;;;;;-144.24;100.00;98189.84;5078420;28;45460;-73
2024/02/02 03:52:23;;;;;;;;;23.50;17.50;;;;;-144.24;100.00;98256.81;5073877;28;45667;-72
2024/02/02 03:54:49;;;;;;;;;13.00;11.75;;;;;-144.24;100.00;98287.25;5070051;28;46768;-71
2024/02/02 03:57:14;;;;;;;;;21.00;16.00;;;;;-144.24;100.00;98271.03;5077238;28;45543;-71
2024/02/02 03:59:40;;;;;;;;;17.25;17.00;;;;;-144.24;100.00;98269.00;5078468;28;62854;-72
2024/02/02 04:02:05;;;;;;;;;15.50;11.50;;;;;-144.24;100.00;98293.34;5053836;28;45349;-72
2024/02/02 04:04:31;;;;;;;;;16.25;14.50;;;;;-144.24;100.00;98204.06;5075518;28;45775;-72
2024/02/02 04:06:57;;;;;;;;;16.75;16.25;;;;;-144.24;100.00;98222.31;5059695;28;45367;-72
2024/02/02 04:09:22;;;;;;;;;14.00;14.00;;;;;-144.24;100.00;98378.56;5058646;28;45499;-71
2024/02/02 04:11:47;;;;;;;;;17.50;13.00;;;;;-144.24;100.00;98443.53;5078480;28;45348;-73
2024/02/02 04:14:13;;;;;;;;;14.00;14.00;;;;;-144.24;100.00;98597.75;5076593;28;61033;-71
2024/02/02 04:16:44;;;;;;;;;16.00;12.00;;;;;-144.24;100.00;98717.50;5073687;28;58696;-71
2024/02/02 04:19:14;;;;;;;;;11.25;10.00;;;;;-144.24;100.00;98605.88;5059333;28;45444;-71
2024/02/02 04:21:40;;;;;;;;;12.25;12.00;;;;;-144.24;100.00;98571.38;5060302;28;45587;-71
2024/02/02 04:24:06;;;;;;;;;12.75;11.75;;;;;-144.24;100.00;98678.94;5066618;28;45589;-73
2024/02/02 04:26:32;;;;;;;;;17.50;14.25;;;;;-144.24;100.00;98839.25;5076301;28;45409;-72
2024/02/02 04:28:57;;;;;;;;;12.75;11.00;;;;;-144.24;100.00;98963.06;5071706;28;48132;-70
2024/02/02 04:31:22;;;;;;;;;13.75;10.50;;;;;-144.24;100.00;98954.94;5072814;28;46411;-72
2024/02/02 04:33:48;;;;;;;;;18.75;12.00;;;;;-144.24;100.00;99135.59;5057932;28;60872;-71
2024/02/02 04:36:13;;;;;;;;;15.25;12.75;;;;;-144.24;100.00;99072.69;5074748;27;57018;-71
2024/02/02 04:38:38;;;;;;;;;16.50;12.75;;;;;-144.24;100.00;99314.22;5071900;28;45238;-73
2024/02/02 04:41:04;;;;;;;;;12.50;12.25;;;;;-144.24;100.00;99204.59;5076246;28;45559;-71
2024/02/02 04:43:29;;;;;;;;;15.75;10.50;;;;;-144.24;100.00;99476.59;5074081;28;46821;-71
2024/02/02 04:45:54;;;;;;;;;12.00;7.00;;;;;-144.24;100.00;99533.44;5075584;28;63573;-72
2024/02/02 04:48:20;;;;;;;;;8.25;8.25;;;;;-144.24;100.00;99436.00;5076337;28;50771;-71
2024/02/02 04:50:45;;;;;;;;;13.50;12.00;;;;;-144.24;100.00;99569.97;5073649;28;53706;-73
2024/02/02 04:53:13;;;;;;;;;11.00;11.00;;;;;-144.24;100.00;99596.38;5075217;28;70583;-73
2024/02/02 04:55:38;;;;;;;;;11.50;10.00;;;;;-144.24;100.00;99616.66;5077726;28;45406;-72
2024/02/02 04:58:03;;;;;;;;;13.25;11.00;;;;;-144.24;100.00;99659.28;5075201;28;46091;-71
2024/02/02 05:00:29;;;;;;;;;11.75;8.00;;;;;-144.24;100.00;99854.19;5075156;28;45413;-73
2024/02/02 05:02:54;;;;;;;;;12.50;10.00;;;;;-144.24;100.00;99760.81;5075213;28;46724;-72
2024/02/02 05:05:19;;;;;;;;;11.75;11.25;;;;;-144.24;100.00;99858.25;5075521;28;59876;-72
2024/02/02 05:07:45;;;;;;;;;14.75;10.75;;;;;-144.24;100.00;99779.06;5076370;28;45312;-72
2024/02/02 05:10:10;;;;;;;;;14.00;11.00;;;;;-144.24;100.00;99716.13;5068340;28;53323;-72
2024/02/02 05:12:35;;;;;;;;;11.00;9.50;;;;;-144.24;100.00;99890.72;5074309;28;64486;-73
2024/02/02 05:15:01;;;;;;;;;10.50;9.75;;;;;-144.24;100.00;100059.22;5076194;28;45389;-72
2024/02/02 05:17:27;;;;;;;;;12.75;7.75;;;;;-144.24;100.00;100089.69;5075034;28;45413;-72
2024/02/02 05:19:53;;;;;;;;;11.25;11.25;;;;;-144.24;100.00;100373.91;5058862;28;45358;-72
2024/02/02 05:22:18;;;;;;;;;15.00;10.75;;;;;-144.24;100.00;100455.13;5074046;28;46426;-71
2024/02/02 05:24:44;;;;;;;;;10.50;10.25;;;;;-144.24;100.00;100652.09;5075947;28;45239;-72
2024/02/02 05:27:10;;;;;;;;;11.00;7.75;;;;;-144.24;100.00;100849.03;5075583;28;45346;-72
2024/02/02 05:29:36;;;;;;;;;13.00;10.50;;;;;-144.24;100.00;101314.06;5076078;28;45395;-73
2024/02/02 05:32:01;;;;;;;;;10.50;10.00;;;;;-144.24;100.00;101498.88;5071312;28;54613;-72
2024/02/02 05:34:26;;;;;;;;;7.50;7.50;;;;;-144.24;100.00;101671.50;5076003;28;46810;-72
2024/02/02 05:36:52;;;;;;;;;6.50;5.00;;;;;-144.24;100.00;101651.19;5075612;28;45464;-73
2024/02/02 05:39:17;;;;;;;;;11.50;7.75;;;;;-144.24;100.00;101663.38;5071502;28;45395;-73
2024/02/02 05:41:42;;;;;;;;;12.00;10.00;;;;;-144.24;100.00;101734.47;5056674;28;68280;-72
2024/02/02 05:44:08;;;;;;;;;12.00;10.75;;;;;-144.24;100.00;101815.72;5074249;28;69029;-73
2024/02/02 05:46:33;;;;;;;;;17.00;9.50;;;;;-144.24;100.00;101738.53;5074896;28;45611;-71
2024/02/02 05:48:58;;;;;;;;;19.00;12.50;;;;;-144.24;100.00;101645.13;5078589;28;45612;-73
2024/02/02 05:51:24;;;;;;;;;7.50;7.50;;;;;-144.24;100.00;101758.84;5075796;28;64945;-73
2024/02/02 05:53:49;;;;;;;;;14.25;10.00;;;;;-144.24;100.00;101836.03;5072070;28;68017;-73
2024/02/02 05:56:15;;;;;;;;;15.25;11.00;;;;;-144.24;100.00;101777.13;5078670;28;46825;-72
2024/02/02 05:58:40;;;;;;;;;16.25;9.75;;;;;-144.24;100.00;101781.19;5078811;28;45412;-72
2024/02/02 06:01:05;;;;;;;;;12.00;11.00;;;;;-144.24;100.00;101740.56;5073584;28;58910;-72
2024/02/02 06:03:31;;;;;;;;;8.75;7.25;;;;;-144.24;100.00;101795.41;5058439;28;45544;-72
2024/02/02 06:05:56;;;;;;;;;13.25;12.50;;;;;-144.24;100.00;101553.72;5043702;28;45595;-72
2024/02/02 06:08:21;;;;;;;;;10.00;9.00;;;;;-144.24;100.00;101620.75;5065805;28;45421;-74
2024/02/02 06:10:47;;;;;;;;;11.00;8.25;;;;;-144.24;100.00;101379.06;5053987;28;45953;-73
2024/02/02 06:13:12;;;;;;;;;7.75;6.50;;;;;-144.24;100.00;101350.63;5023877;28;54853;-73
2024/02/02 06:15:37;;;;;;;;;13.25;10.00;;;;;-144.24;100.00;101324.22;5057290;28;45863;-72
2024/02/02 06:18:04;;;;;;;;;10.00;10.00;;;;;-144.24;100.00;101291.72;5057359;28;54794;-73
2024/02/02 06:20:29;;;;;;;;;8.50;8.50;;;;;-144.24;100.00;101165.81;5057350;28;46000;-72
2024/02/02 06:22:54;;;;;;;;;11.00;9.75;;;;;-144.24;100.00;100993.22;5057666;28;45588;-74
2024/02/02 06:25:20;;;;;;;;;12.50;10.75;;;;;-144.24;100.00;100981.03;5057539;28;45439;-73
2024/02/02 06:27:45;;;;;;;;;15.25;10.75;;;;;-144.24;100.00;100970.88;5057275;28;45576;-72
2024/02/02 06:30:12;;;;;;;;;11.75;8.00;;;;;-144.24;100.00;101096.78;5057502;28;45812;-72
2024/02/02 06:32:39;;;;;;;;;12.25;10.00;;;;;-144.24;100.00;100954.63;5057573;28;45391;-73
2024/02/02 06:35:05;;;;;;;;;9.75;8.50;;;;;-144.24;100.00;100993.22;5185543;22;45428;-72
2024/02/02 06:37:30;;;;;;;;;16.00;10.25;;;;;-144.24;100.00;100698.78;5074250;27;45515;-72
2024/02/02 06:39:56;;;;;;;;;16.00;14.75;;;;;-144.24;100.00;100643.97;5096508;27;46464;-72
2024/02/02 06:42:24;;;;;;;;;11.25;11.25;;;;;-144.24;100.00;100479.50;5090803;27;45479;-72
2024/02/02 06:44:51;;;;;;;;;15.00;13.75;;;;;-144.24;100.00;100258.19;5097005;27;45532;-72
2024/02/02 06:47:17;;;;;;;;;14.25;11.25;;;;;-144.24;100.00;100097.81;5090351;27;45670;-71
2024/02/02 06:49:42;;;;;;;;;11.00;10.00;;;;;-144.24;100.00;99921.19;5092645;27;46364;-72
2024/02/02 06:52:08;;;;;;;;;13.25;8.50;;;;;-144.24;100.00;99797.34;5095589;27;45374;-74
2024/02/02 06:54:33;;;;;;;;;12.00;9.75;;;;;-144.24;100.00;99649.16;5092325;27;45400;-73
2024/02/02 06:56:58;;;;;;;;;15.25;11.00;;;;;-144.24;100.00;99728.31;5097800;27;51748;-74
2024/02/02 06:59:24;;;;;;;;;15.75;11.25;;;;;-144.24;100.00;99509.09;5096558;27;59918;-73
2024/02/02 07:01:49;;;;;;;;;12.50;11.00;;;;;-144.24;100.00;99444.13;5097419;27;45430;-73
2024/02/02 07:04:15;;;;;;;;;11.50;10.25;;;;;-144.24;100.00;99425.84;5098411;27;45288;-73
2024/02/02 07:06:41;;;;;;;;;15.75;13.25;;;;;-144.24;100.00;99318.28;5087770;27;45620;-74
2024/02/02 07:09:18;;;;;;;;;20.00;12.25;;;;;-144.24;100.00;98985.41;5094909;27;46606;-73
2024/02/02 07:12:06;;;;;;;;;10.75;10.50;;;;;-144.24;100.00;98847.38;5092364;27;45473;-73
2024/02/02 07:14:42;;;;;;;;;14.25;11.25;;;;;-144.24;100.00;98952.94;5066910;27;45528;-72
2024/02/02 07:17:22;;;;;;;;;12.00;10.50;;;;;-144.24;100.00;98689.09;5094783;27;45539;-73
2024/02/02 07:19:47;;;;;;;;;13.75;11.25;;;;;-144.24;100.00;98749.97;5079305;27;45931;-72
2024/02/02 07:22:39;;;;;;;;;10.00;9.00;;;;;-144.24;100.00;98293.34;5094807;27;45716;-72
2024/02/02 07:25:13;;;;;;;;;13.50;10.50;;;;;-144.24;100.00;98417.13;5071535;27;45485;-73
2024/02/02 07:27:49;;;;;;;;;12.00;11.00;;;;;-144.24;100.00;98293.34;5070940;27;45625;-73
2024/02/02 07:30:36;;;;;;;;;15.75;11.50;;;;;-144.24;100.00;98210.16;5071076;27;45934;-73
2024/02/02 07:33:01;;;;;;;;;12.75;8.25;;;;;-144.24;100.00;98003.16;5074293;27;45482;-73
2024/02/02 07:35:32;;;;;;;;;14.50;13.75;;;;;-144.24;100.00;98163.47;5069896;27;56422;-73
2024/02/02 07:38:03;;;;;;;;;14.50;14.50;;;;;-144.24;100.00;98236.53;5090640;27;45635;-72
2024/02/02 07:40:32;;;;;;;;;17.75;13.75;;;;;-144.24;100.00;98465.84;5071822;27;45786;-72
2024/02/02 07:42:57;;;;;;;;;15.50;11.50;;;;;-144.24;100.00;98796.66;5093883;27;45489;-73
2024/02/02 07:45:22;;;;;;;;;13.75;11.00;;;;;-144.24;100.00;99097.03;5073693;27;57786;-72
2024/02/02 07:47:48;;;;;;;;;14.00;13.00;;;;;-144.24;100.00;98959.00;5090614;27;48212;-74
2024/02/02 07:50:13;;;;;;;;;14.50;9.25;;;;;-144.24;100.00;98920.44;5092062;27;63903;-71
2024/02/02 07:52:38;;;;;;;;;12.25;10.00;;;;;-144.24;100.00;98711.41;5067602;27;45473;-73
2024/02/02 07:55:04;;;;;;;;;12.75;10.25;;;;;-144.24;100.00;98644.44;5082506;27;67480;-70
2024/02/02 07:57:29;;;;;;;;;15.25;13.50;;;;;-144.24;100.00;98429.31;5069094;27;45405;-74
2024/02/02 07:59:55;;;;;;;;;14.00;10.50;;;;;-144.24;100.00;98409.03;5089818;27;63896;-69
2024/02/02 08:02:22;;;;;;;;;15.00;14.00;;;;;-144.24;100.00;98234.50;5071743;27;65895;-71
2024/02/02 08:04:48;;;;;;;;;17.25;12.75;;;;;-144.24;100.00;98163.47;5088136;27;45517;-69
2024/02/02 08:07:13;;;;;;;;;16.75;11.50;;;;;-144.24;100.00;97970.69;5095158;27;45485;-69
2024/02/02 08:09:38;;;;;;;;;16.25;11.25;;;;;-144.24;100.00;97662.28;5083233;27;51103;-70
2024/02/02 08:12:04;;;;;;;;;17.75;13.00;;;;;-144.24;100.00;97512.13;5090515;27;72036;-71
2024/02/02 08:14:29;;;;;;;;;11.50;11.50;;;;;-144.24;100.00;97220.00;5084187;27;45343;-70
2024/02/02 08:16:55;;;;;;;;;18.00;14.50;;;;;-144.24;100.00;96919.75;5090202;27;66389;-71
2024/02/02 08:19:20;;;;;;;;;16.25;13.25;;;;;-144.24;100.00;96682.41;5087711;27;46595;-71
2024/02/02 08:21:45;;;;;;;;;22.75;14.00;;;;;-144.24;100.00;96473.47;5091814;27;60129;-71
2024/02/02 08:24:11;;;;;;;;;11.00;10.50;;;;;-144.24;100.00;96353.78;5088440;27;45479;-70
2024/02/02 08:26:36;;;;;;;;;16.75;11.50;;;;;-144.24;100.00;96086.06;5088579;27;67545;-72
2024/02/02 08:29:01;;;;;;;;;13.25;11.00;;;;;-144.24;100.00;95848.78;5087564;27;56753;-71
2024/02/02 08:31:27;;;;;;;;;17.50;16.25;;;;;-144.24;100.00;95862.97;5088816;27;45413;-71
2024/02/02 08:33:52;;;;;;;;;21.25;12.75;;;;;-144.24;100.00;95893.41;5088767;27;45568;-71
2024/02/02 08:36:20;;;;;;;;;17.00;14.50;;;;;-144.24;100.00;95639.88;5094066;27;45588;-70
2024/02/02 08:38:46;;;;;;;;;18.25;14.50;;;;;-144.24;100.00;95404.66;5086920;27;46902;-70
2024/02/02 08:41:11;;;;;;;;;12.00;11.00;;;;;-144.24;100.00;95349.91;5067107;27;45431;-69
2024/02/02 08:43:37;;;;;;;;;15.25;12.75;;;;;-144.24;100.00;95141.03;5076030;27;45489;-70
2024/02/02 08:46:04;;;;;;;;;18.50;13.25;;;;;-144.24;100.00;95366.13;5071040;27;45597;-69
2024/02/02 08:48:33;;;;;;;;;16.00;12.00;;;;;-144.24;100.00;95021.41;5087194;27;46996;-70
2024/02/02 08:50:59;;;;;;;;;15.25;13.00;;;;;-144.24;100.00;94830.81;5087940;27;45482;-71
2024/02/02 08:53:24;;;;;;;;;12.00;10.25;;;;;-144.24;100.00;94838.91;5088453;27;45499;-70
2024/02/02 08:55:50;;;;;;;;;26.00;16.75;;;;;-144.24;100.00;94869.34;5070378;27;45566;-71
2024/02/02 08:58:23;;;;;;;;;17.75;12.25;;;;;-144.24;100.00;94913.94;5092977;27;70455;-71
2024/02/02 09:00:50;;;;;;;;;14.50;13.25;;;;;-144.24;100.00;94932.19;5074608;27;45504;-69
2024/02/02 09:03:18;;;;;;;;;16.75;11.50;;;;;-144.24;100.00;94834.88;5070962;27;45401;-71
2024/02/02 09:05:54;;;;;;;;;21.75;18.50;;;;;-144.24;100.00;94938.28;5093428;27;45484;-74
2024/02/02 09:08:25;;;;;;;;;12.75;12.75;;;;;-144.24;100.00;95043.72;5092611;27;46265;-70
2024/02/02 09:10:59;;;;;;;;;14.75;10.00;;;;;-144.24;100.00;95303.25;5060746;28;45526;-70
2024/02/02 09:13:33;;;;;;;;;13.50;12.00;;;;;-144.24;100.00;95278.94;5078678;27;45388;-70
2024/02/02 09:15:58;;;;;;;;;15.75;11.00;;;;;-144.24;100.00;95437.09;5068551;27;45682;-70
2024/02/02 09:18:45;;;;;;;;;10.25;7.75;;;;;-144.24;100.00;95376.25;5093782;27;73775;-70
2024/02/02 09:21:12;;;;;;;;;17.75;7.75;;;;;-144.24;100.00;95704.78;5063935;27;45442;-70
2024/02/02 09:23:43;;;;;;;;;13.25;13.25;;;;;-144.24;100.00;96130.69;5076397;27;45494;-72
2024/02/02 09:26:11;;;;;;;;;12.00;11.75;;;;;-144.24;100.00;96272.66;5071373;27;45422;-71
2024/02/02 09:28:39;;;;;;;;;13.50;13.50;;;;;-144.24;100.00;96167.19;5079202;27;45974;-69
2024/02/02 09:31:06;;;;;;;;;14.00;13.00;;;;;-144.24;100.00;96292.94;5092417;27;45543;-70
2024/02/02 09:33:31;;;;;;;;;21.50;12.75;;;;;-144.24;100.00;96388.28;5091458;27;45489;-70
2024/02/02 09:36:03;;;;;;;;;11.50;11.50;;;;;-144.24;100.00;96159.09;5093497;27;46483;-70
2024/02/02 09:38:29;;;;;;;;;18.25;13.25;;;;;-144.24;100.00;96453.19;5076143;27;45691;-70
2024/02/02 09:41:00;;;;;;;;;16.25;10.75;;;;;-144.24;100.00;96430.88;5090477;27;45418;-69
2024/02/02 09:43:56;;;;;;;;;11.75;11.75;;;;;-144.24;100.00;96323.38;5096558;27;45544;-70
2024/02/02 09:46:49;;;;;;;;;17.00;12.50;;;;;-144.24;100.00;96483.63;5084470;27;45521;-70
2024/02/02 09:49:52;;;;;;;;;18.75;15.25;;;;;-144.24;100.00;96578.94;5079915;27;46910;-70
2024/02/02 09:52:38;;;;;;;;;13.75;13.75;;;;;-144.24;100.00;96714.84;5086496;27;45458;-71
2024/02/02 09:55:23;;;;;;;;;11.75;11.75;;;;;-144.24;100.00;96921.78;5085645;27;45545;-70
2024/02/02 09:58:12;;;;;;;;;15.00;12.00;;;;;-144.24;100.00;97288.97;5076930;27;45505;-69
2024/02/02 10:00:52;;;;;;;;;16.75;12.25;;;;;-144.24;100.00;97613.59;5070829;27;46024;-70
2024/02/02 10:03:34;;;;;;;;;14.75;10.75;;;;;-144.24;100.00;98011.28;5077264;27;45488;-69
2024/02/02 10:06:15;;;;;;;;;12.75;11.25;;;;;-144.24;100.00;98372.50;5071475;27;45733;-72
2024/02/02 10:09:07;;;;;;;;;9.00;9.00;;;;;-144.24;100.00;98500.34;5094975;27;45467;-70
2024/02/02 10:11:41;;;;;;;;;11.75;9.00;;;;;-144.24;100.00;98770.25;5069556;27;48503;-70
2024/02/02 10:14:20;;;;;;;;;18.25;12.25;;;;;-144.24;100.00;98900.16;5092023;27;45453;-70
2024/02/02 10:17:03;;;;;;;;;14.50;10.75;;;;;-144.24;100.00;99249.25;5090217;27;45430;-70
2024/02/02 10:19:48;;;;;;;;;15.25;12.00;;;;;-144.24;100.00;99409.63;5079488;27;45462;-69
2024/02/02 10:22:35;;;;;;;;;12.75;11.00;;;;;-144.24;100.00;99582.16;5073660;27;45535;-72
2024/02/02 10:25:20;;;;;;;;;12.67;11.00;;;;;-144.24;100.00;99913.06;5094387;27;46146;-72
2024/02/02 10:28:31;;;;;;;;;16.25;12.25;;;;;-144.24;100.00;100382.03;5071203;27;45355;-69
2024/02/02 10:31:20;;;;;;;;;8.25;7.00;;;;;-144.24;100.00;101046.00;5055580;27;45641;-70
2024/02/02 10:33:57;;;;;;;;;15.00;13.33;;;;;-144.24;100.00;101381.09;5080742;27;46776;-70
2024/02/02 10:37:01;;;;;;;;;13.33;10.67;;;;;-144.24;100.00;101821.81;5091226;27;45461;-70
2024/02/02 10:39:45;;;;;;;;;11.75;9.00;;;;;-144.24;100.00;102388.53;5093094;27;45461;-70
2024/02/02 10:42:48;;;;;;;;;14.25;10.00;;;;;-144.24;100.00;102941.09;5091179;27;45520;-70
2024/02/02 10:45:36;;;;;;;;;10.67;8.67;;;;;-144.24;100.00;103727.41;5091416;27;46021;-70
2024/02/02 10:48:34;;;;;;;;;10.00;10.00;;;;;-144.24;100.00;104225.28;5087622;27;45986;-70
2024/02/02 10:51:05;;;;;;;;;12.67;12.00;;;;;-144.24;100.00;104749.63;5088098;27;45378;-71
2024/02/02 10:53:33;;;;;;;;;14.00;10.00;;;;;-144.24;100.00;104857.38;5096761;27;45600;-69
2024/02/02 10:56:10;;;;;;;;;12.33;12.33;;;;;-144.24;100.00;104950.88;5066910;27;45894;-70
2024/02/02 10:58:52;;;;;;;;;16.00;14.00;;;;;-144.24;100.00;105522.06;5072137;27;45411;-70
2024/02/02 11:01:40;;;;;;;;;15.00;10.00;;;;;-144.24;100.00;106294.66;5083476;27;46164;-75